»·PEaware :: N196EC KHHR-KCRQ

N196EC :: KHHR-KCRQ

FLIGHT INFORMATION

Flight Status: Arrived
Operator: Privately registered:
United States
More flights under this callsign
Pilot: Adrián R. (20842)
Aircraft: AERMACCHI WARRIOR
(F260)
More flights by this aircraft type
Origin: KHHR Northrop/Hawthorne Mun
United States
Destination: KCRQ McClellan-Palomar
United States
More flights between these airports :: More routes between these airports
Route: LIMBO V64 V363 DANAH V23 OCN
File this flight plan on PilotEdge
Remarks: TEC ROUTE SCTP11
Altitude:
(Current/Filed)
5,000ft
Speed:
(Current/Filed)
155kts
Departed: 30-Nov-18 09:06 AM
Arrived: 30-Nov-18 09:57 AM
Distance/Time
Traveled:
71nm/0:51
Distance/Time
To Go:
Arrived

Flight Plot

Page will automatically refresh every two minutes.


Map Options




Map Legend


Flown Route
Filed Route
Departure Airport
Arrival Airport
Navaid (VOR, NDB)
Fix

Horizontal Profiles

Position Reports

Time Latitude Longitude Heading Altitude Ground
Speed
30-Nov-18 08:44 33.921945 -118.328314 303 63ft 0kts
30-Nov-18 08:45 33.921945 -118.328314 303 63ft 0kts
30-Nov-18 08:46 33.921945 -118.328314 303 63ft 0kts
30-Nov-18 08:47 33.921945 -118.328314 303 63ft 0kts
30-Nov-18 08:48 33.921945 -118.328314 303 63ft 0kts
30-Nov-18 08:49 33.921945 -118.328314 303 63ft 0kts
30-Nov-18 08:50 33.921945 -118.328314 303 63ft 0kts
30-Nov-18 08:51 33.921945 -118.328314 303 63ft 0kts
30-Nov-18 08:52 33.921945 -118.328314 303 63ft 0kts
30-Nov-18 08:53 33.921945 -118.328314 303 63ft 0kts
30-Nov-18 08:54 33.921945 -118.328314 303 63ft 0kts
30-Nov-18 08:55 33.921945 -118.328314 303 63ft 0kts
30-Nov-18 08:56 33.921945 -118.328314 303 63ft 0kts
30-Nov-18 08:57 33.921945 -118.328314 303 63ft 0kts
30-Nov-18 08:58 33.921945 -118.328314 303 63ft 0kts
30-Nov-18 08:59 33.921945 -118.328314 303 63ft 0kts
30-Nov-18 09:00 33.921945 -118.328314 303 63ft 0kts
30-Nov-18 09:01 33.921945 -118.328314 303 63ft 0kts
30-Nov-18 09:02 33.921945 -118.328314 303 63ft 0kts
30-Nov-18 09:03 33.921945 -118.328314 303 63ft 0kts
30-Nov-18 09:04 33.921945 -118.328314 303 63ft 0kts
30-Nov-18 09:05 33.921945 -118.328314 303 63ft 0kts
30-Nov-18 09:06 33.922658 -118.327989 59 63ft 10kts
30-Nov-18 09:07 33.922864 -118.327214 356 63ft 0kts
30-Nov-18 09:08 33.922971 -118.327230 348 63ft 4kts
30-Nov-18 09:09 33.922623 -118.340902 263 254ft 106kts
30-Nov-18 09:10 33.904617 -118.370907 221 1529ft 126kts
30-Nov-18 09:11 33.877863 -118.399861 222 2723ft 130kts
30-Nov-18 09:12 33.853130 -118.425804 222 3719ft 109kts
30-Nov-18 09:13 33.827895 -118.441188 198 4577ft 104kts
30-Nov-18 09:14 33.797505 -118.445745 185 5060ft 129kts
30-Nov-18 09:15 33.757609 -118.443590 136 4992ft 153kts
30-Nov-18 09:16 33.759846 -118.396131 74 5010ft 153kts
30-Nov-18 09:17 33.765664 -118.345071 80 5053ft 155kts
30-Nov-18 09:18 33.769267 -118.293268 81 5054ft 155kts
30-Nov-18 09:19 33.772378 -118.242175 81 5053ft 150kts
30-Nov-18 09:20 33.775315 -118.192430 81 5054ft 148kts
30-Nov-18 09:21 33.778165 -118.143608 81 5054ft 146kts
30-Nov-18 09:22 33.780959 -118.095216 82 5054ft 144kts
30-Nov-18 09:23 33.782184 -118.047191 89 5061ft 145kts
30-Nov-18 09:24 33.778951 -117.998755 89 5063ft 146kts
30-Nov-18 09:25 33.775550 -117.949847 90 5063ft 148kts
30-Nov-18 09:26 33.771874 -117.900314 90 5063ft 149kts
30-Nov-18 09:27 33.768122 -117.850174 91 5063ft 151kts
30-Nov-18 09:28 33.764356 -117.799446 90 5064ft 152kts
30-Nov-18 09:29 33.742111 -117.761269 157 5067ft 159kts
30-Nov-18 09:30 33.700742 -117.742221 158 5066ft 160kts
30-Nov-18 09:31 33.658386 -117.726386 172 5065ft 160kts
30-Nov-18 09:32 33.614381 -117.721052 174 5064ft 160kts
30-Nov-18 09:33 33.570421 -117.713902 172 5065ft 160kts
30-Nov-18 09:34 33.526339 -117.706723 173 5068ft 160kts
30-Nov-18 09:35 33.483730 -117.693980 136 5075ft 161kts
30-Nov-18 09:36 33.450609 -117.657599 137 5077ft 162kts
30-Nov-18 09:37 33.417990 -117.620429 138 5081ft 162kts
30-Nov-18 09:38 33.384572 -117.582193 137 4974ft 164kts
30-Nov-18 09:39 33.351683 -117.544513 137 4981ft 163kts
30-Nov-18 09:40 33.319003 -117.507076 136 4979ft 163kts
30-Nov-18 09:41 33.286299 -117.469645 135 4978ft 162kts
30-Nov-18 09:42 33.253800 -117.432012 134 4979ft 162kts
30-Nov-18 09:43 33.232864 -117.387992 89 4984ft 158kts
30-Nov-18 09:44 33.230179 -117.333637 90 4504ft 174kts
30-Nov-18 09:45 33.227924 -117.276612 90 3983ft 156kts
30-Nov-18 09:46 33.226237 -117.230500 90 3986ft 129kts
30-Nov-18 09:47 33.224888 -117.187338 90 3995ft 134kts
30-Nov-18 09:48 33.223886 -117.142174 90 3997ft 138kts
30-Nov-18 09:49 33.223282 -117.096017 90 3999ft 139kts
30-Nov-18 09:50 33.222843 -117.049731 90 3997ft 139kts
30-Nov-18 09:51 33.201134 -117.028186 216 3997ft 121kts
30-Nov-18 09:52 33.173924 -117.052767 221 3582ft 122kts
30-Nov-18 09:53 33.159843 -117.084350 259 3497ft 109kts
30-Nov-18 09:54 33.153743 -117.122110 260 2980ft 123kts
30-Nov-18 09:55 33.147659 -117.159862 260 2331ft 103kts
30-Nov-18 09:56 33.142798 -117.189854 259 1792ft 86kts
30-Nov-18 09:57 33.138345 -117.217458 259 1316ft 88kts
30-Nov-18 09:58 33.133601 -117.245947 259 823ft 83kts
30-Nov-18 09:59 33.129513 -117.272200 260 333ft 76kts
30-Nov-18 10:00 33.127589 -117.279508 126 303ft 0kts
30-Nov-18 10:01 33.127682 -117.278495 79 303ft 10kts
30-Nov-18 10:02 33.127345 -117.275045 157 303ft 12kts
30-Nov-18 10:03 33.127088 -117.274633 334 303ft 0kts
30-Nov-18 10:04 33.127088 -117.274633 334 303ft 0kts
30-Nov-18 10:05 33.127088 -117.274633 334 303ft 0kts
30-Nov-18 10:06 33.127088 -117.274633 334 303ft 0kts
30-Nov-18 10:07 33.127088 -117.274633 334 303ft 0kts
30-Nov-18 10:08 33.127088 -117.274633 334 303ft 0kts
30-Nov-18 10:09 33.127088 -117.274633 334 303ft 0kts
30-Nov-18 10:10 33.127088 -117.274633 334 303ft 0kts
30-Nov-18 10:11 33.127088 -117.274633 334 303ft 0kts
30-Nov-18 10:12 33.127088 -117.274633 334 303ft 0kts
30-Nov-18 10:13 33.127088 -117.274633 334 303ft 0kts
30-Nov-18 10:14 33.127088 -117.274633 334 303ft 0kts

Navigation Log

Ident Type
Flight plan parsing failed, navigation log unavailable